DETTK EDKB-EDLE
Flight info
| Callsign | DETTK |
|---|---|
| Flight time | N/A |
| Altitude | |
| Route | |
| Aircraft | C172 |
Departure
| Time | 2026-04-15 18:07 |
|---|---|
| Airport | Bonn-Hangelar Airfield (EDKB) |
Arrival
| Time | N/A |
|---|---|
| Airport | Essen-Mülheim Airport (EDLE) |
| Time | Latitude | Longitude | Altitude | Speed | Heading |
|---|---|---|---|---|---|
| 2026-04-15 18:07 | 50.72907 | 7.19692 | 1540 ft | 88 kts | 178° |
| 2026-04-15 18:07 | 50.72290 | 7.19715 | 1729 ft | 92 kts | 184° |
| 2026-04-15 18:07 | 50.71734 | 7.19307 | 1971 ft | 88 kts | 226° |
| 2026-04-15 18:07 | 50.71475 | 7.18417 | 2032 ft | 92 kts | 256° |
| 2026-04-15 18:08 | 50.71422 | 7.17404 | 2059 ft | 93 kts | 260° |
| 2026-04-15 18:08 | 50.71335 | 7.16384 | 2046 ft | 100 kts | 262° |
| 2026-04-15 18:08 | 50.71464 | 7.15264 | 1989 ft | 107 kts | 288° |
| 2026-04-15 18:08 | 50.71757 | 7.14195 | 1968 ft | 106 kts | 289° |
| 2026-04-15 18:09 | 50.72086 | 7.13152 | 1978 ft | 104 kts | 300° |
| 2026-04-15 18:09 | 50.72615 | 7.12343 | 1981 ft | 108 kts | 318° |
| 2026-04-15 18:09 | 50.73232 | 7.11624 | 1950 ft | 112 kts | 322° |
| 2026-04-15 18:09 | 50.73860 | 7.10915 | 1957 ft | 110 kts | 320° |
| 2026-04-15 18:10 | 50.74470 | 7.10184 | 1948 ft | 109 kts | 319° |
| 2026-04-15 18:10 | 50.75047 | 7.09453 | 1990 ft | 105 kts | 316° |
| 2026-04-15 18:10 | 50.75608 | 7.08710 | 2007 ft | 106 kts | 319° |
| 2026-04-15 18:10 | 50.76221 | 7.08013 | 1962 ft | 111 kts | 321° |
| 2026-04-15 18:11 | 50.76871 | 7.07365 | 1988 ft | 109 kts | 336° |
| 2026-04-15 18:11 | 50.77603 | 7.07404 | 1989 ft | 111 kts | 21° |
| 2026-04-15 18:11 | 50.78325 | 7.07889 | 1976 ft | 114 kts | 26° |
| 2026-04-15 18:11 | 50.79043 | 7.08453 | 1940 ft | 116 kts | 30° |
| 2026-04-15 18:12 | 50.79758 | 7.09047 | 1920 ft | 118 kts | 30° |
| 2026-04-15 18:12 | 50.80468 | 7.09653 | 1911 ft | 115 kts | 34° |
| 2026-04-15 18:12 | 50.81162 | 7.10295 | 1865 ft | 117 kts | 32° |
| 2026-04-15 18:12 | 50.81871 | 7.10904 | 1888 ft | 115 kts | 32° |
| 2026-04-15 18:13 | 50.82550 | 7.11560 | 1860 ft | 115 kts | 32° |
| 2026-04-15 18:13 | 50.83270 | 7.12123 | 1835 ft | 115 kts | 28° |
| 2026-04-15 18:13 | 50.83985 | 7.12706 | 1793 ft | 116 kts | 34° |
| 2026-04-15 18:14 | 50.85143 | 7.14428 | 1760 ft | 112 kts | 59° |
| 2026-04-15 18:14 | 50.85561 | 7.15457 | 1759 ft | 110 kts | 61° |
| 2026-04-15 18:14 | 50.85861 | 7.16566 | 1794 ft | 109 kts | 76° |
| 2026-04-15 18:14 | 50.86105 | 7.17701 | 1834 ft | 109 kts | 76° |
| 2026-04-15 18:15 | 50.86336 | 7.18838 | 1837 ft | 107 kts | 77° |
| 2026-04-15 18:15 | 50.86551 | 7.19952 | 1862 ft | 108 kts | 77° |
| 2026-04-15 18:15 | 50.86828 | 7.21083 | 1856 ft | 116 kts | 72° |
| 2026-04-15 18:15 | 50.87140 | 7.22200 | 1985 ft | 107 kts | 71° |
| 2026-04-15 18:16 | 50.87457 | 7.23261 | 2010 ft | 106 kts | 67° |
| 2026-04-15 18:16 | 50.87803 | 7.24308 | 2018 ft | 110 kts | 65° |
| 2026-04-15 18:16 | 50.88208 | 7.25366 | 1967 ft | 112 kts | 62° |
| 2026-04-15 18:16 | 50.88633 | 7.26392 | 1974 ft | 111 kts | 58° |
| 2026-04-15 18:17 | 50.89061 | 7.27380 | 2037 ft | 105 kts | 59° |
| 2026-04-15 18:17 | 50.89476 | 7.28324 | 2028 ft | 106 kts | 58° |
| 2026-04-15 18:17 | 50.89909 | 7.29276 | 2061 ft | 110 kts | 59° |
| 2026-04-15 18:17 | 50.90350 | 7.30262 | 2081 ft | 110 kts | 56° |
| 2026-04-15 18:18 | 50.90833 | 7.31205 | 2086 ft | 111 kts | 55° |
| 2026-04-15 18:18 | 50.91389 | 7.31991 | 2120 ft | 109 kts | 13° |
| 2026-04-15 18:18 | 50.92137 | 7.31675 | 2012 ft | 115 kts | 326° |
| 2026-04-15 18:18 | 50.92803 | 7.30944 | 1952 ft | 117 kts | 320° |
| 2026-04-15 18:19 | 50.93423 | 7.30120 | 1922 ft | 117 kts | 317° |
| 2026-04-15 18:19 | 50.94039 | 7.29286 | 1896 ft | 117 kts | 317° |
| 2026-04-15 18:19 | 50.94623 | 7.28430 | 1912 ft | 112 kts | 311° |
| 2026-04-15 18:19 | 50.95151 | 7.27548 | 1950 ft | 110 kts | 308° |
| 2026-04-15 18:20 | 50.95482 | 7.26949 | 1969 ft | 108 kts | 307° |
| 2026-04-15 18:20 | 50.95953 | 7.26037 | 1993 ft | 106 kts | 303° |
| 2026-04-15 18:20 | 50.96404 | 7.25100 | 2052 ft | 103 kts | 301° |
| 2026-04-15 18:20 | 50.96803 | 7.24177 | 2099 ft | 104 kts | 300° |
| 2026-04-15 18:21 | 50.97158 | 7.23157 | 2117 ft | 107 kts | 290° |
| 2026-04-15 18:21 | 50.97454 | 7.22049 | 2074 ft | 110 kts | 288° |
| 2026-04-15 18:21 | 50.97715 | 7.20917 | 2067 ft | 110 kts | 283° |
| 2026-04-15 18:21 | 50.97942 | 7.19772 | 2068 ft | 107 kts | 282° |
| 2026-04-15 18:22 | 50.98138 | 7.18656 | 2093 ft | 105 kts | 280° |
| 2026-04-15 18:22 | 50.98415 | 7.17589 | 2133 ft | 106 kts | 301° |
| 2026-04-15 18:22 | 50.98967 | 7.16784 | 2144 ft | 110 kts | 327° |
| 2026-04-15 18:22 | 50.99691 | 7.16338 | 2139 ft | 112 kts | 339° |
| 2026-04-15 18:23 | 51.00436 | 7.15972 | 2155 ft | 114 kts | 341° |
| 2026-04-15 18:23 | 51.01186 | 7.15630 | 2258 ft | 111 kts | 343° |
| 2026-04-15 18:23 | 51.01915 | 7.15296 | 2323 ft | 109 kts | 341° |
| 2026-04-15 18:23 | 51.02643 | 7.14933 | 2474 ft | 112 kts | 340° |
| 2026-04-15 18:24 | 51.03389 | 7.14571 | 2669 ft | 112 kts | 341° |
| 2026-04-15 18:24 | 51.04140 | 7.14235 | 2858 ft | 114 kts | 342° |
| 2026-04-15 18:24 | 51.04880 | 7.13951 | 3124 ft | 107 kts | 345° |
| 2026-04-15 18:24 | 51.05599 | 7.13699 | 3360 ft | 103 kts | 341° |
| 2026-04-15 18:25 | 51.06279 | 7.13407 | 3593 ft | 101 kts | 340° |
| 2026-04-15 18:25 | 51.06966 | 7.13094 | 3765 ft | 102 kts | 339° |
| 2026-04-15 18:25 | 51.07643 | 7.12794 | 4006 ft | 97 kts | 341° |
| 2026-04-15 18:25 | 51.08287 | 7.12536 | 4260 ft | 91 kts | 340° |
| 2026-04-15 18:26 | 51.08856 | 7.12294 | 4552 ft | 79 kts | 338° |
| 2026-04-15 18:26 | 51.09375 | 7.12063 | 4742 ft | 78 kts | 338° |
| 2026-04-15 18:26 | 51.09903 | 7.11810 | 4919 ft | 81 kts | 334° |
| 2026-04-15 18:26 | 51.10490 | 7.11604 | 5049 ft | 90 kts | 343° |
| 2026-04-15 18:27 | 51.11087 | 7.11377 | 5253 ft | 86 kts | 339° |
| 2026-04-15 18:27 | 51.11653 | 7.11132 | 5452 ft | 84 kts | 339° |
| 2026-04-15 18:27 | 51.12254 | 7.10862 | 5557 ft | 95 kts | 339° |
| 2026-04-15 18:27 | 51.12923 | 7.10585 | 5713 ft | 99 kts | 340° |
| 2026-04-15 18:28 | 51.13610 | 7.10301 | 5725 ft | 115 kts | 340° |
| 2026-04-15 18:28 | 51.14433 | 7.09895 | 5555 ft | 114 kts | 339° |
| 2026-04-15 18:28 | 51.15165 | 7.09559 | 5474 ft | 108 kts | 339° |
| 2026-04-15 18:28 | 51.15890 | 7.09272 | 5452 ft | 105 kts | 343° |
| 2026-04-15 18:29 | 51.16612 | 7.09054 | 5370 ft | 108 kts | 344° |
| 2026-04-15 18:29 | 51.17353 | 7.08841 | 5263 ft | 113 kts | 346° |
| 2026-04-15 18:29 | 51.18123 | 7.08636 | 4999 ft | 115 kts | 347° |
| 2026-04-15 18:29 | 51.18898 | 7.08448 | 4732 ft | 111 kts | 348° |
| 2026-04-15 18:30 | 51.19662 | 7.08281 | 4451 ft | 110 kts | 347° |
| 2026-04-15 18:30 | 51.20411 | 7.08109 | 4253 ft | 109 kts | 349° |
| 2026-04-15 18:30 | 51.21168 | 7.07968 | 4036 ft | 110 kts | 350° |
| 2026-04-15 18:30 | 51.21929 | 7.07851 | 3833 ft | 109 kts | 350° |
| 2026-04-15 18:31 | 51.22686 | 7.07736 | 3580 ft | 111 kts | 352° |
| 2026-04-15 18:31 | 51.23475 | 7.07666 | 3239 ft | 118 kts | 354° |
| 2026-04-15 18:31 | 51.24306 | 7.07648 | 2888 ft | 121 kts | 359° |
| 2026-04-15 18:31 | 51.25137 | 7.07681 | 2585 ft | 119 kts | 356° |
| 2026-04-15 18:32 | 51.25954 | 7.07539 | 2321 ft | 116 kts | 349° |
| 2026-04-15 18:32 | 51.26731 | 7.07361 | 2145 ft | 111 kts | 350° |
| 2026-04-15 18:32 | 51.27483 | 7.07211 | 2011 ft | 108 kts | 351° |
| 2026-04-15 18:32 | 51.28198 | 7.07089 | 1980 ft | 99 kts | 350° |
| 2026-04-15 18:33 | 51.28889 | 7.06938 | 1958 ft | 103 kts | 351° |
| 2026-04-15 18:33 | 51.29586 | 7.06772 | 2054 ft | 101 kts | 346° |
| 2026-04-15 18:33 | 51.30290 | 7.06545 | 2088 ft | 104 kts | 345° |
| 2026-04-15 18:33 | 51.30994 | 7.06271 | 2061 ft | 104 kts | 341° |
| 2026-04-15 18:34 | 51.31668 | 7.05957 | 2053 ft | 99 kts | 338° |
| 2026-04-15 18:34 | 51.32312 | 7.05611 | 2019 ft | 96 kts | 335° |
| 2026-04-15 18:34 | 51.32942 | 7.05261 | 2002 ft | 96 kts | 334° |
| 2026-04-15 18:34 | 51.33560 | 7.04855 | 2010 ft | 96 kts | 334° |
| 2026-04-15 18:35 | 51.34167 | 7.04461 | 2043 ft | 97 kts | 335° |
| 2026-04-15 18:35 | 51.34826 | 7.04143 | 2049 ft | 101 kts | 346° |
| 2026-04-15 18:35 | 51.35504 | 7.03944 | 2060 ft | 98 kts | 346° |
| 2026-04-15 18:35 | 51.36174 | 7.03747 | 2051 ft | 98 kts | 346° |
| 2026-04-15 18:36 | 51.36847 | 7.03529 | 2047 ft | 101 kts | 345° |
| 2026-04-15 18:36 | 51.37522 | 7.03270 | 2044 ft | 101 kts | 342° |
| 2026-04-15 18:36 | 51.38201 | 7.03039 | 2088 ft | 100 kts | 347° |
| 2026-04-15 18:36 | 51.38927 | 7.02856 | 1990 ft | 111 kts | 348° |
| 2026-04-15 18:37 | 51.39702 | 7.02678 | 1969 ft | 113 kts | 349° |
| 2026-04-15 18:37 | 51.40456 | 7.02519 | 1994 ft | 107 kts | 349° |
| 2026-04-15 18:37 | 51.41196 | 7.02324 | 1996 ft | 111 kts | 347° |
| 2026-04-15 18:37 | 51.41946 | 7.02086 | 1986 ft | 111 kts | 344° |